sensor_id;sensor_type;location;lat;lon;timestamp;temperature;humidity
9329;DHT22;4703;48.748;19.142;2022-07-29T00:00:30;19.90;97.80
9329;DHT22;4703;48.748;19.142;2022-07-29T00:02:57;19.80;97.70
9329;DHT22;4703;48.748;19.142;2022-07-29T00:05:24;19.80;98.00
9329;DHT22;4703;48.748;19.142;2022-07-29T00:07:51;19.90;98.10
9329;DHT22;4703;48.748;19.142;2022-07-29T00:10:18;19.90;98.10
9329;DHT22;4703;48.748;19.142;2022-07-29T00:12:45;19.90;98.30
9329;DHT22;4703;48.748;19.142;2022-07-29T00:15:13;19.80;98.40
9329;DHT22;4703;48.748;19.142;2022-07-29T00:17:40;19.80;98.40
9329;DHT22;4703;48.748;19.142;2022-07-29T00:20:08;19.80;98.40
9329;DHT22;4703;48.748;19.142;2022-07-29T00:22:37;19.80;98.40
9329;DHT22;4703;48.748;19.142;2022-07-29T00:25:05;19.70;98.50
9329;DHT22;4703;48.748;19.142;2022-07-29T00:27:35;19.70;98.60
9329;DHT22;4703;48.748;19.142;2022-07-29T00:30:03;19.70;98.70
9329;DHT22;4703;48.748;19.142;2022-07-29T00:32:31;19.70;98.80
9329;DHT22;4703;48.748;19.142;2022-07-29T00:34:58;19.60;99.00
9329;DHT22;4703;48.748;19.142;2022-07-29T00:37:43;19.60;99.00
9329;DHT22;4703;48.748;19.142;2022-07-29T00:40:10;19.60;98.90
9329;DHT22;4703;48.748;19.142;2022-07-29T00:42:49;19.60;99.00
9329;DHT22;4703;48.748;19.142;2022-07-29T00:45:18;19.60;98.90
9329;DHT22;4703;48.748;19.142;2022-07-29T00:47:46;19.60;99.00
9329;DHT22;4703;48.748;19.142;2022-07-29T00:50:14;19.60;99.10
9329;DHT22;4703;48.748;19.142;2022-07-29T00:52:42;19.60;99.10
9329;DHT22;4703;48.748;19.142;2022-07-29T00:55:12;19.50;99.00
9329;DHT22;4703;48.748;19.142;2022-07-29T00:57:41;19.50;99.20
9329;DHT22;4703;48.748;19.142;2022-07-29T01:00:18;19.50;99.30
9329;DHT22;4703;48.748;19.142;2022-07-29T01:02:47;19.50;99.20
9329;DHT22;4703;48.748;19.142;2022-07-29T01:05:18;19.40;99.30
9329;DHT22;4703;48.748;19.142;2022-07-29T01:07:47;19.40;99.40
9329;DHT22;4703;48.748;19.142;2022-07-29T01:10:16;19.40;99.50
9329;DHT22;4703;48.748;19.142;2022-07-29T01:12:47;19.40;99.60
9329;DHT22;4703;48.748;19.142;2022-07-29T01:15:16;19.40;99.70
9329;DHT22;4703;48.748;19.142;2022-07-29T01:17:54;20.20;99.90
9329;DHT22;4703;48.748;19.142;2022-07-29T01:24:11;19.30;99.90
9329;DHT22;4703;48.748;19.142;2022-07-29T01:26:52;19.30;99.90
9329;DHT22;4703;48.748;19.142;2022-07-29T01:29:38;19.20;99.90
9329;DHT22;4703;48.748;19.142;2022-07-29T01:32:18;19.30;99.90
9329;DHT22;4703;48.748;19.142;2022-07-29T01:38:10;19.20;99.90
9329;DHT22;4703;48.748;19.142;2022-07-29T01:40:45;19.20;99.90
9329;DHT22;4703;48.748;19.142;2022-07-29T01:43:19;19.30;99.90
9329;DHT22;4703;48.748;19.142;2022-07-29T01:46:01;19.20;99.90
9329;DHT22;4703;48.748;19.142;2022-07-29T01:48:47;19.20;99.90
9329;DHT22;4703;48.748;19.142;2022-07-29T01:51:21;19.20;99.90
9329;DHT22;4703;48.748;19.142;2022-07-29T01:54:04;19.20;99.90
9329;DHT22;4703;48.748;19.142;2022-07-29T01:56:36;19.20;99.90
9329;DHT22;4703;48.748;19.142;2022-07-29T01:59:06;19.30;99.90
9329;DHT22;4703;48.748;19.142;2022-07-29T02:01:37;19.20;99.90
9329;DHT22;4703;48.748;19.142;2022-07-29T02:04:07;19.40;99.90
9329;DHT22;4703;48.748;19.142;2022-07-29T02:06:54;19.40;99.90
9329;DHT22;4703;48.748;19.142;2022-07-29T02:09:24;19.20;99.90
9329;DHT22;4703;48.748;19.142;2022-07-29T02:11:53;19.20;99.90
9329;DHT22;4703;48.748;19.142;2022-07-29T02:14:23;19.20;99.90
9329;DHT22;4703;48.748;19.142;2022-07-29T02:16:53;19.20;99.90
9329;DHT22;4703;48.748;19.142;2022-07-29T02:19:22;19.20;99.90
9329;DHT22;4703;48.748;19.142;2022-07-29T02:21:51;19.40;99.90
9329;DHT22;4703;48.748;19.142;2022-07-29T02:24:22;19.30;99.90
9329;DHT22;4703;48.748;19.142;2022-07-29T02:26:51;19.20;99.90
9329;DHT22;4703;48.748;19.142;2022-07-29T02:29:25;19.20;99.90
9329;DHT22;4703;48.748;19.142;2022-07-29T02:31:53;19.20;99.90
9329;DHT22;4703;48.748;19.142;2022-07-29T02:34:22;19.20;99.90
9329;DHT22;4703;48.748;19.142;2022-07-29T02:36:50;19.20;99.90
9329;DHT22;4703;48.748;19.142;2022-07-29T02:39:18;19.10;99.90
9329;DHT22;4703;48.748;19.142;2022-07-29T02:41:56;19.10;99.90
9329;DHT22;4703;48.748;19.142;2022-07-29T02:44:27;19.20;99.90
9329;DHT22;4703;48.748;19.142;2022-07-29T02:50:23;19.00;99.90
9329;DHT22;4703;48.748;19.142;2022-07-29T02:53:05;19.00;99.90
9329;DHT22;4703;48.748;19.142;2022-07-29T02:55:59;18.90;99.90
9329;DHT22;4703;48.748;19.142;2022-07-29T02:58:39;18.80;99.90
9329;DHT22;4703;48.748;19.142;2022-07-29T03:01:23;18.80;99.90
9329;DHT22;4703;48.748;19.142;2022-07-29T03:03:53;18.80;99.90
9329;DHT22;4703;48.748;19.142;2022-07-29T03:06:23;19.60;99.90
9329;DHT22;4703;48.748;19.142;2022-07-29T03:09:06;18.70;99.90
9329;DHT22;4703;48.748;19.142;2022-07-29T03:11:40;18.70;99.90
9329;DHT22;4703;48.748;19.142;2022-07-29T03:14:19;18.70;99.90
9329;DHT22;4703;48.748;19.142;2022-07-29T03:16:48;18.70;99.90
9329;DHT22;4703;48.748;19.142;2022-07-29T03:19:16;18.60;99.90
9329;DHT22;4703;48.748;19.142;2022-07-29T03:21:44;18.60;99.90
9329;DHT22;4703;48.748;19.142;2022-07-29T03:24:30;18.60;99.90
9329;DHT22;4703;48.748;19.142;2022-07-29T03:26:59;18.60;99.90
9329;DHT22;4703;48.748;19.142;2022-07-29T03:29:27;18.60;99.90
9329;DHT22;4703;48.748;19.142;2022-07-29T03:32:03;18.50;99.90
9329;DHT22;4703;48.748;19.142;2022-07-29T03:34:35;18.50;99.90
9329;DHT22;4703;48.748;19.142;2022-07-29T03:37:04;18.50;99.90
9329;DHT22;4703;48.748;19.142;2022-07-29T03:39:36;18.50;99.90
9329;DHT22;4703;48.748;19.142;2022-07-29T03:42:06;18.40;99.90
9329;DHT22;4703;48.748;19.142;2022-07-29T03:44:36;18.40;99.90
9329;DHT22;4703;48.748;19.142;2022-07-29T03:47:04;18.40;99.90
9329;DHT22;4703;48.748;19.142;2022-07-29T03:49:35;18.40;99.90
9329;DHT22;4703;48.748;19.142;2022-07-29T03:52:04;18.40;99.90
9329;DHT22;4703;48.748;19.142;2022-07-29T03:54:32;18.80;99.90
9329;DHT22;4703;48.748;19.142;2022-07-29T03:57:01;20.20;99.90
9329;DHT22;4703;48.748;19.142;2022-07-29T03:59:30;18.40;99.90
9329;DHT22;4703;48.748;19.142;2022-07-29T04:02:00;18.40;99.90
9329;DHT22;4703;48.748;19.142;2022-07-29T04:04:32;18.40;99.90
9329;DHT22;4703;48.748;19.142;2022-07-29T04:07:01;18.40;99.90
9329;DHT22;4703;48.748;19.142;2022-07-29T04:09:28;18.40;99.90
9329;DHT22;4703;48.748;19.142;2022-07-29T04:11:55;18.50;99.90
9329;DHT22;4703;48.748;19.142;2022-07-29T04:14:33;18.50;99.90
9329;DHT22;4703;48.748;19.142;2022-07-29T04:17:02;18.50;99.90
9329;DHT22;4703;48.748;19.142;2022-07-29T04:19:30;18.50;99.90
9329;DHT22;4703;48.748;19.142;2022-07-29T04:21:58;18.50;99.90
9329;DHT22;4703;48.748;19.142;2022-07-29T04:24:26;18.50;99.90
9329;DHT22;4703;48.748;19.142;2022-07-29T04:26:54;18.50;99.90
9329;DHT22;4703;48.748;19.142;2022-07-29T04:29:21;18.50;99.90
9329;DHT22;4703;48.748;19.142;2022-07-29T04:31:48;18.50;99.90
9329;DHT22;4703;48.748;19.142;2022-07-29T04:34:15;18.50;99.90
9329;DHT22;4703;48.748;19.142;2022-07-29T04:36:43;18.50;99.90
9329;DHT22;4703;48.748;19.142;2022-07-29T04:39:10;18.50;99.90
9329;DHT22;4703;48.748;19.142;2022-07-29T04:41:37;18.50;99.90
9329;DHT22;4703;48.748;19.142;2022-07-29T04:44:04;18.70;99.90
9329;DHT22;4703;48.748;19.142;2022-07-29T04:46:33;18.70;99.90
9329;DHT22;4703;48.748;19.142;2022-07-29T04:49:02;18.60;99.90
9329;DHT22;4703;48.748;19.142;2022-07-29T04:51:30;18.60;99.90
9329;DHT22;4703;48.748;19.142;2022-07-29T04:53:57;18.60;99.90
9329;DHT22;4703;48.748;19.142;2022-07-29T04:56:24;18.70;99.90
9329;DHT22;4703;48.748;19.142;2022-07-29T04:58:51;18.80;99.90
9329;DHT22;4703;48.748;19.142;2022-07-29T05:01:19;18.80;99.90
9329;DHT22;4703;48.748;19.142;2022-07-29T05:03:46;18.90;99.90
9329;DHT22;4703;48.748;19.142;2022-07-29T05:06:13;19.60;99.90
9329;DHT22;4703;48.748;19.142;2022-07-29T05:08:40;19.00;99.90
9329;DHT22;4703;48.748;19.142;2022-07-29T05:11:07;19.10;99.90
9329;DHT22;4703;48.748;19.142;2022-07-29T05:13:39;19.20;99.90
9329;DHT22;4703;48.748;19.142;2022-07-29T05:16:12;19.20;99.90
9329;DHT22;4703;48.748;19.142;2022-07-29T05:18:40;19.30;99.90
9329;DHT22;4703;48.748;19.142;2022-07-29T05:21:08;19.40;99.90
9329;DHT22;4703;48.748;19.142;2022-07-29T05:23:35;19.50;99.90
9329;DHT22;4703;48.748;19.142;2022-07-29T05:26:02;19.50;99.90
9329;DHT22;4703;48.748;19.142;2022-07-29T05:28:33;19.60;99.90
9329;DHT22;4703;48.748;19.142;2022-07-29T05:31:01;19.70;99.90
9329;DHT22;4703;48.748;19.142;2022-07-29T05:33:29;19.80;99.90
9329;DHT22;4703;48.748;19.142;2022-07-29T05:36:03;20.10;99.90
9329;DHT22;4703;48.748;19.142;2022-07-29T05:38:34;19.90;99.90
9329;DHT22;4703;48.748;19.142;2022-07-29T05:41:03;20.00;99.90
9329;DHT22;4703;48.748;19.142;2022-07-29T05:43:31;20.90;99.90
9329;DHT22;4703;48.748;19.142;2022-07-29T05:45:58;20.10;99.90
9329;DHT22;4703;48.748;19.142;2022-07-29T05:48:25;20.10;99.90
9329;DHT22;4703;48.748;19.142;2022-07-29T05:50:52;20.20;99.90
9329;DHT22;4703;48.748;19.142;2022-07-29T05:53:20;20.20;99.90
9329;DHT22;4703;48.748;19.142;2022-07-29T05:55:48;20.30;99.90
9329;DHT22;4703;48.748;19.142;2022-07-29T05:58:15;20.30;99.90
9329;DHT22;4703;48.748;19.142;2022-07-29T06:00:42;20.40;99.90
9329;DHT22;4703;48.748;19.142;2022-07-29T06:03:09;20.40;99.90
9329;DHT22;4703;48.748;19.142;2022-07-29T06:05:37;20.40;99.90
9329;DHT22;4703;48.748;19.142;2022-07-29T06:08:04;20.50;99.90
9329;DHT22;4703;48.748;19.142;2022-07-29T06:10:35;20.60;99.90
9329;DHT22;4703;48.748;19.142;2022-07-29T06:13:02;20.70;99.90
9329;DHT22;4703;48.748;19.142;2022-07-29T06:15:29;20.80;99.90
9329;DHT22;4703;48.748;19.142;2022-07-29T06:17:56;20.80;99.90
9329;DHT22;4703;48.748;19.142;2022-07-29T06:20:30;20.90;99.90
9329;DHT22;4703;48.748;19.142;2022-07-29T06:22:58;19.30;99.20
9329;DHT22;4703;48.748;19.142;2022-07-29T06:25:26;21.00;99.90
9329;DHT22;4703;48.748;19.142;2022-07-29T06:27:56;21.00;99.80
9329;DHT22;4703;48.748;19.142;2022-07-29T06:30:23;21.10;99.90
9329;DHT22;4703;48.748;19.142;2022-07-29T06:32:50;21.10;99.80
9329;DHT22;4703;48.748;19.142;2022-07-29T06:35:18;21.20;99.90
9329;DHT22;4703;48.748;19.142;2022-07-29T06:38:05;21.20;99.90
9329;DHT22;4703;48.748;19.142;2022-07-29T06:40:52;21.30;99.90
9329;DHT22;4703;48.748;19.142;2022-07-29T06:43:37;21.40;99.50
9329;DHT22;4703;48.748;19.142;2022-07-29T06:46:21;21.40;99.70
9329;DHT22;4703;48.748;19.142;2022-07-29T06:48:48;21.50;99.90
9329;DHT22;4703;48.748;19.142;2022-07-29T06:51:16;21.50;99.60
9329;DHT22;4703;48.748;19.142;2022-07-29T06:53:50;21.60;99.30
9329;DHT22;4703;48.748;19.142;2022-07-29T06:56:38;21.60;98.80
9329;DHT22;4703;48.748;19.142;2022-07-29T06:59:09;21.70;99.10
9329;DHT22;4703;48.748;19.142;2022-07-29T07:01:41;21.70;98.90
9329;DHT22;4703;48.748;19.142;2022-07-29T07:04:10;21.80;98.90
9329;DHT22;4703;48.748;19.142;2022-07-29T07:06:38;21.80;98.60
9329;DHT22;4703;48.748;19.142;2022-07-29T07:09:05;21.90;98.60
9329;DHT22;4703;48.748;19.142;2022-07-29T07:11:32;21.90;98.50
9329;DHT22;4703;48.748;19.142;2022-07-29T07:13:59;22.00;98.40
9329;DHT22;4703;48.748;19.142;2022-07-29T07:16:30;22.10;97.70
9329;DHT22;4703;48.748;19.142;2022-07-29T07:18:58;22.10;97.50
9329;DHT22;4703;48.748;19.142;2022-07-29T07:21:25;22.20;97.50
9329;DHT22;4703;48.748;19.142;2022-07-29T07:23:56;22.20;96.90
9329;DHT22;4703;48.748;19.142;2022-07-29T07:26:23;22.30;97.50
9329;DHT22;4703;48.748;19.142;2022-07-29T07:28:50;22.40;97.30
9329;DHT22;4703;48.748;19.142;2022-07-29T07:31:17;22.40;97.50
9329;DHT22;4703;48.748;19.142;2022-07-29T07:33:44;22.50;96.10
9329;DHT22;4703;48.748;19.142;2022-07-29T07:36:11;22.50;96.80
9329;DHT22;4703;48.748;19.142;2022-07-29T07:38:38;22.60;96.70
9329;DHT22;4703;48.748;19.142;2022-07-29T07:41:05;22.60;96.70
9329;DHT22;4703;48.748;19.142;2022-07-29T07:43:32;22.70;96.50
9329;DHT22;4703;48.748;19.142;2022-07-29T07:45:59;22.80;95.10
9329;DHT22;4703;48.748;19.142;2022-07-29T07:48:26;22.80;94.90
9329;DHT22;4703;48.748;19.142;2022-07-29T07:50:53;22.90;94.70
9329;DHT22;4703;48.748;19.142;2022-07-29T07:53:21;22.90;94.20
9329;DHT22;4703;48.748;19.142;2022-07-29T07:55:48;23.00;94.40
9329;DHT22;4703;48.748;19.142;2022-07-29T07:58:35;23.10;94.70
9329;DHT22;4703;48.748;19.142;2022-07-29T08:01:02;23.10;94.20
9329;DHT22;4703;48.748;19.142;2022-07-29T08:03:30;23.20;94.60
9329;DHT22;4703;48.748;19.142;2022-07-29T08:05:57;23.30;93.20
9329;DHT22;4703;48.748;19.142;2022-07-29T08:08:24;23.40;92.00
9329;DHT22;4703;48.748;19.142;2022-07-29T08:10:51;23.50;92.40
9329;DHT22;4703;48.748;19.142;2022-07-29T08:13:23;23.60;91.40
9329;DHT22;4703;48.748;19.142;2022-07-29T08:15:54;23.70;92.00
9329;DHT22;4703;48.748;19.142;2022-07-29T08:18:25;23.80;92.00
9329;DHT22;4703;48.748;19.142;2022-07-29T08:20:53;23.80;90.90
9329;DHT22;4703;48.748;19.142;2022-07-29T08:23:21;23.90;90.70
9329;DHT22;4703;48.748;19.142;2022-07-29T08:25:51;23.90;90.70
9329;DHT22;4703;48.748;19.142;2022-07-29T08:28:20;24.00;90.60
9329;DHT22;4703;48.748;19.142;2022-07-29T08:30:52;24.10;91.20
9329;DHT22;4703;48.748;19.142;2022-07-29T08:33:19;24.20;90.50
9329;DHT22;4703;48.748;19.142;2022-07-29T08:35:47;24.20;89.80
9329;DHT22;4703;48.748;19.142;2022-07-29T08:38:16;24.30;88.10
9329;DHT22;4703;48.748;19.142;2022-07-29T08:40:43;24.40;86.90
9329;DHT22;4703;48.748;19.142;2022-07-29T08:43:10;24.50;84.50
9329;DHT22;4703;48.748;19.142;2022-07-29T08:45:46;24.60;83.60
9329;DHT22;4703;48.748;19.142;2022-07-29T08:48:20;24.70;82.90
9329;DHT22;4703;48.748;19.142;2022-07-29T08:50:52;24.70;84.10
9329;DHT22;4703;48.748;19.142;2022-07-29T08:53:24;24.70;83.60
9329;DHT22;4703;48.748;19.142;2022-07-29T08:55:54;24.80;82.50
9329;DHT22;4703;48.748;19.142;2022-07-29T08:58:22;24.90;80.70
9329;DHT22;4703;48.748;19.142;2022-07-29T09:00:53;24.90;81.40
9329;DHT22;4703;48.748;19.142;2022-07-29T09:03:26;25.00;81.30
9329;DHT22;4703;48.748;19.142;2022-07-29T09:05:58;25.00;82.20
9329;DHT22;4703;48.748;19.142;2022-07-29T09:08:26;25.10;83.00
9329;DHT22;4703;48.748;19.142;2022-07-29T09:10:54;25.20;80.80
9329;DHT22;4703;48.748;19.142;2022-07-29T09:13:25;25.30;79.10
9329;DHT22;4703;48.748;19.142;2022-07-29T09:15:53;25.40;79.60
9329;DHT22;4703;48.748;19.142;2022-07-29T09:21:14;25.60;76.70
9329;DHT22;4703;48.748;19.142;2022-07-29T09:24:09;25.60;76.70
9329;DHT22;4703;48.748;19.142;2022-07-29T09:26:41;25.70;76.00
9329;DHT22;4703;48.748;19.142;2022-07-29T09:29:11;25.70;76.90
9329;DHT22;4703;48.748;19.142;2022-07-29T09:31:41;25.80;79.20
9329;DHT22;4703;48.748;19.142;2022-07-29T09:34:10;25.90;79.20
9329;DHT22;4703;48.748;19.142;2022-07-29T09:36:44;25.90;77.60
9329;DHT22;4703;48.748;19.142;2022-07-29T09:39:14;26.00;76.60
9329;DHT22;4703;48.748;19.142;2022-07-29T09:41:52;26.10;77.20
9329;DHT22;4703;48.748;19.142;2022-07-29T09:44:22;26.20;75.80
9329;DHT22;4703;48.748;19.142;2022-07-29T09:46:57;26.30;73.30
9329;DHT22;4703;48.748;19.142;2022-07-29T09:49:26;26.40;73.70
9329;DHT22;4703;48.748;19.142;2022-07-29T09:52:20;26.40;75.90
9329;DHT22;4703;48.748;19.142;2022-07-29T09:54:48;26.50;73.70
9329;DHT22;4703;48.748;19.142;2022-07-29T10:02:46;26.80;71.60
9329;DHT22;4703;48.748;19.142;2022-07-29T10:05:23;27.00;70.80
9329;DHT22;4703;48.748;19.142;2022-07-29T10:07:53;27.10;71.90
9329;DHT22;4703;48.748;19.142;2022-07-29T10:10:28;27.30;71.90
9329;DHT22;4703;48.748;19.142;2022-07-29T10:13:01;27.40;71.80
9329;DHT22;4703;48.748;19.142;2022-07-29T10:15:40;27.70;71.00
9329;DHT22;4703;48.748;19.142;2022-07-29T10:18:14;27.90;66.10
9329;DHT22;4703;48.748;19.142;2022-07-29T10:20:44;28.00;67.40
9329;DHT22;4703;48.748;19.142;2022-07-29T10:23:11;28.10;67.00
9329;DHT22;4703;48.748;19.142;2022-07-29T10:25:39;28.10;66.60
9329;DHT22;4703;48.748;19.142;2022-07-29T10:28:12;28.20;65.90
9329;DHT22;4703;48.748;19.142;2022-07-29T10:30:43;28.20;64.50
9329;DHT22;4703;48.748;19.142;2022-07-29T10:36:40;28.30;64.60
9329;DHT22;4703;48.748;19.142;2022-07-29T10:39:19;28.50;62.70
9329;DHT22;4703;48.748;19.142;2022-07-29T10:42:24;28.70;63.20
9329;DHT22;4703;48.748;19.142;2022-07-29T10:45:00;28.80;63.10
9329;DHT22;4703;48.748;19.142;2022-07-29T10:47:30;28.80;62.50
9329;DHT22;4703;48.748;19.142;2022-07-29T10:50:03;28.80;61.30
9329;DHT22;4703;48.748;19.142;2022-07-29T10:55:37;28.70;59.40
9329;DHT22;4703;48.748;19.142;2022-07-29T11:01:04;28.40;62.10
9329;DHT22;4703;48.748;19.142;2022-07-29T11:04:04;28.30;60.70
9329;DHT22;4703;48.748;19.142;2022-07-29T11:09:32;28.20;59.30
9329;DHT22;4703;48.748;19.142;2022-07-29T11:12:45;28.10;59.80
9329;DHT22;4703;48.748;19.142;2022-07-29T11:15:15;28.20;60.30
9329;DHT22;4703;48.748;19.142;2022-07-29T11:23:30;28.10;59.80
9329;DHT22;4703;48.748;19.142;2022-07-29T11:26:18;28.10;60.10
9329;DHT22;4703;48.748;19.142;2022-07-29T11:37:15;30.20;59.00
9329;DHT22;4703;48.748;19.142;2022-07-29T11:45:07;31.60;55.90
9329;DHT22;4703;48.748;19.142;2022-07-29T11:47:57;31.90;53.30
9329;DHT22;4703;48.748;19.142;2022-07-29T11:50:46;32.20;51.40
9329;DHT22;4703;48.748;19.142;2022-07-29T11:53:14;32.40;50.70
9329;DHT22;4703;48.748;19.142;2022-07-29T11:55:42;32.50;49.00
9329;DHT22;4703;48.748;19.142;2022-07-29T11:58:22;32.60;50.40
9329;DHT22;4703;48.748;19.142;2022-07-29T12:00:52;32.80;48.80
9329;DHT22;4703;48.748;19.142;2022-07-29T12:03:28;33.10;50.20
9329;DHT22;4703;48.748;19.142;2022-07-29T12:06:02;33.30;47.40
9329;DHT22;4703;48.748;19.142;2022-07-29T12:08:40;33.30;46.10
9329;DHT22;4703;48.748;19.142;2022-07-29T12:11:20;33.30;46.20
9329;DHT22;4703;48.748;19.142;2022-07-29T12:13:50;33.30;45.30
9329;DHT22;4703;48.748;19.142;2022-07-29T12:16:19;33.50;45.00
9329;DHT22;4703;48.748;19.142;2022-07-29T12:18:59;33.60;44.00
9329;DHT22;4703;48.748;19.142;2022-07-29T12:21:29;33.60;43.20
9329;DHT22;4703;48.748;19.142;2022-07-29T12:24:42;33.60;42.30
9329;DHT22;4703;48.748;19.142;2022-07-29T12:27:10;33.60;43.80
9329;DHT22;4703;48.748;19.142;2022-07-29T12:29:39;33.50;44.50
9329;DHT22;4703;48.748;19.142;2022-07-29T12:32:13;33.30;43.80
9329;DHT22;4703;48.748;19.142;2022-07-29T12:34:45;33.00;44.30
9329;DHT22;4703;48.748;19.142;2022-07-29T12:37:13;32.50;43.60
9329;DHT22;4703;48.748;19.142;2022-07-29T12:39:40;31.90;45.00
9329;DHT22;4703;48.748;19.142;2022-07-29T12:42:12;31.30;48.30
9329;DHT22;4703;48.748;19.142;2022-07-29T12:44:48;30.80;48.70
9329;DHT22;4703;48.748;19.142;2022-07-29T12:47:16;30.20;50.10
9329;DHT22;4703;48.748;19.142;2022-07-29T12:49:45;29.80;52.30
9329;DHT22;4703;48.748;19.142;2022-07-29T12:52:29;29.50;53.60
9329;DHT22;4703;48.748;19.142;2022-07-29T12:55:00;29.00;54.20
9329;DHT22;4703;48.748;19.142;2022-07-29T12:57:28;28.70;55.60
9329;DHT22;4703;48.748;19.142;2022-07-29T13:00:14;28.40;56.60
9329;DHT22;4703;48.748;19.142;2022-07-29T13:02:42;28.10;58.50
9329;DHT22;4703;48.748;19.142;2022-07-29T13:05:11;27.80;59.60
9329;DHT22;4703;48.748;19.142;2022-07-29T13:07:39;27.60;61.30
9329;DHT22;4703;48.748;19.142;2022-07-29T13:10:23;27.40;62.20
9329;DHT22;4703;48.748;19.142;2022-07-29T13:13:11;27.20;62.30
9329;DHT22;4703;48.748;19.142;2022-07-29T13:15:43;27.20;63.20
9329;DHT22;4703;48.748;19.142;2022-07-29T13:18:30;27.20;63.60
9329;DHT22;4703;48.748;19.142;2022-07-29T13:21:11;27.20;60.50
9329;DHT22;4703;48.748;19.142;2022-07-29T13:23:39;27.30;61.20
9329;DHT22;4703;48.748;19.142;2022-07-29T13:26:08;27.40;63.50
9329;DHT22;4703;48.748;19.142;2022-07-29T13:28:35;27.60;65.40
9329;DHT22;4703;48.748;19.142;2022-07-29T13:31:02;27.70;67.00
9329;DHT22;4703;48.748;19.142;2022-07-29T13:33:30;27.90;65.60
9329;DHT22;4703;48.748;19.142;2022-07-29T13:35:57;28.00;65.30
9329;DHT22;4703;48.748;19.142;2022-07-29T13:38:24;28.10;63.90
9329;DHT22;4703;48.748;19.142;2022-07-29T13:40:56;28.30;61.50
9329;DHT22;4703;48.748;19.142;2022-07-29T13:43:24;28.50;62.20
9329;DHT22;4703;48.748;19.142;2022-07-29T13:45:50;28.80;60.10
9329;DHT22;4703;48.748;19.142;2022-07-29T13:48:18;29.10;58.80
9329;DHT22;4703;48.748;19.142;2022-07-29T13:50:45;29.50;58.40
9329;DHT22;4703;48.748;19.142;2022-07-29T13:53:13;29.70;56.30
9329;DHT22;4703;48.748;19.142;2022-07-29T13:55:43;30.00;54.80
9329;DHT22;4703;48.748;19.142;2022-07-29T13:58:10;30.00;55.00
9329;DHT22;4703;48.748;19.142;2022-07-29T14:00:37;30.10;55.50
9329;DHT22;4703;48.748;19.142;2022-07-29T14:03:05;30.10;54.80
9329;DHT22;4703;48.748;19.142;2022-07-29T14:05:33;30.00;56.40
9329;DHT22;4703;48.748;19.142;2022-07-29T14:08:00;30.10;55.40
9329;DHT22;4703;48.748;19.142;2022-07-29T14:10:27;30.20;52.70
9329;DHT22;4703;48.748;19.142;2022-07-29T14:12:54;30.60;54.20
9329;DHT22;4703;48.748;19.142;2022-07-29T14:15:21;31.10;53.20
9329;DHT22;4703;48.748;19.142;2022-07-29T14:17:48;31.60;51.80
9329;DHT22;4703;48.748;19.142;2022-07-29T14:20:15;32.10;50.30
9329;DHT22;4703;48.748;19.142;2022-07-29T14:22:42;32.50;50.70
9329;DHT22;4703;48.748;19.142;2022-07-29T14:25:11;32.80;49.00
9329;DHT22;4703;48.748;19.142;2022-07-29T14:27:42;33.00;50.70
9329;DHT22;4703;48.748;19.142;2022-07-29T14:30:10;33.00;48.40
9329;DHT22;4703;48.748;19.142;2022-07-29T14:32:37;33.00;47.30
9329;DHT22;4703;48.748;19.142;2022-07-29T14:35:05;32.80;46.00
9329;DHT22;4703;48.748;19.142;2022-07-29T14:37:33;32.90;47.00
9329;DHT22;4703;48.748;19.142;2022-07-29T14:40:07;32.90;47.90
9329;DHT22;4703;48.748;19.142;2022-07-29T14:42:34;32.90;48.50
9329;DHT22;4703;48.748;19.142;2022-07-29T14:45:04;33.10;46.90
9329;DHT22;4703;48.748;19.142;2022-07-29T14:47:33;33.20;47.40
9329;DHT22;4703;48.748;19.142;2022-07-29T14:50:01;33.50;45.90
9329;DHT22;4703;48.748;19.142;2022-07-29T14:52:28;33.40;46.50
9329;DHT22;4703;48.748;19.142;2022-07-29T14:54:56;33.10;46.20
9329;DHT22;4703;48.748;19.142;2022-07-29T14:57:23;32.80;47.50
9329;DHT22;4703;48.748;19.142;2022-07-29T14:59:50;32.60;49.00
9329;DHT22;4703;48.748;19.142;2022-07-29T15:02:17;32.50;51.40
9329;DHT22;4703;48.748;19.142;2022-07-29T15:04:44;32.40;49.10
9329;DHT22;4703;48.748;19.142;2022-07-29T15:07:12;32.30;49.50
9329;DHT22;4703;48.748;19.142;2022-07-29T15:09:40;32.10;50.00
9329;DHT22;4703;48.748;19.142;2022-07-29T15:12:15;31.80;51.80
9329;DHT22;4703;48.748;19.142;2022-07-29T15:14:43;31.50;52.20
9329;DHT22;4703;48.748;19.142;2022-07-29T15:17:10;31.30;51.20
9329;DHT22;4703;48.748;19.142;2022-07-29T15:19:37;31.10;52.50
9329;DHT22;4703;48.748;19.142;2022-07-29T15:22:10;30.90;50.40
9329;DHT22;4703;48.748;19.142;2022-07-29T15:24:37;30.80;53.50
9329;DHT22;4703;48.748;19.142;2022-07-29T15:27:04;30.70;50.70
9329;DHT22;4703;48.748;19.142;2022-07-29T15:29:31;30.50;50.30
9329;DHT22;4703;48.748;19.142;2022-07-29T15:31:59;30.40;54.10
9329;DHT22;4703;48.748;19.142;2022-07-29T15:34:27;30.30;57.10
9329;DHT22;4703;48.748;19.142;2022-07-29T15:36:54;30.10;59.60
9329;DHT22;4703;48.748;19.142;2022-07-29T15:39:21;30.00;60.20
9329;DHT22;4703;48.748;19.142;2022-07-29T15:41:49;29.70;61.50
9329;DHT22;4703;48.748;19.142;2022-07-29T15:44:17;29.60;64.70
9329;DHT22;4703;48.748;19.142;2022-07-29T15:46:44;29.40;61.80
9329;DHT22;4703;48.748;19.142;2022-07-29T15:49:30;29.10;62.30
9329;DHT22;4703;48.748;19.142;2022-07-29T15:52:18;28.90;61.40
9329;DHT22;4703;48.748;19.142;2022-07-29T15:54:53;28.70;61.50
9329;DHT22;4703;48.748;19.142;2022-07-29T15:57:22;28.50;61.30
9329;DHT22;4703;48.748;19.142;2022-07-29T15:59:50;28.30;63.70
9329;DHT22;4703;48.748;19.142;2022-07-29T16:02:18;27.00;62.60
9329;DHT22;4703;48.748;19.142;2022-07-29T16:04:45;28.00;63.10
9329;DHT22;4703;48.748;19.142;2022-07-29T16:07:12;27.90;65.40
9329;DHT22;4703;48.748;19.142;2022-07-29T16:09:40;27.80;64.90
9329;DHT22;4703;48.748;19.142;2022-07-29T16:12:08;27.80;66.20
9329;DHT22;4703;48.748;19.142;2022-07-29T16:14:41;27.70;66.50
9329;DHT22;4703;48.748;19.142;2022-07-29T16:17:09;27.60;66.30
9329;DHT22;4703;48.748;19.142;2022-07-29T16:19:41;27.60;66.10
9329;DHT22;4703;48.748;19.142;2022-07-29T16:22:09;27.60;67.80
9329;DHT22;4703;48.748;19.142;2022-07-29T16:24:37;27.50;67.60
9329;DHT22;4703;48.748;19.142;2022-07-29T16:27:04;27.50;68.10
9329;DHT22;4703;48.748;19.142;2022-07-29T16:29:34;27.40;67.30
9329;DHT22;4703;48.748;19.142;2022-07-29T16:32:03;27.40;69.40
9329;DHT22;4703;48.748;19.142;2022-07-29T16:34:31;27.40;68.80
9329;DHT22;4703;48.748;19.142;2022-07-29T16:36:58;27.30;67.80
9329;DHT22;4703;48.748;19.142;2022-07-29T16:39:26;27.30;68.50
9329;DHT22;4703;48.748;19.142;2022-07-29T16:41:54;27.20;66.00
9329;DHT22;4703;48.748;19.142;2022-07-29T16:44:27;27.20;64.30
9329;DHT22;4703;48.748;19.142;2022-07-29T16:46:55;27.20;63.80
9329;DHT22;4703;48.748;19.142;2022-07-29T16:49:25;27.10;64.40
9329;DHT22;4703;48.748;19.142;2022-07-29T16:51:53;27.00;64.30
9329;DHT22;4703;48.748;19.142;2022-07-29T16:54:20;26.90;64.10
9329;DHT22;4703;48.748;19.142;2022-07-29T16:56:47;26.80;65.30
9329;DHT22;4703;48.748;19.142;2022-07-29T16:59:14;26.70;65.90